Terminal Aerodrome Forecast
Issued by NWS

Home | Current Version | Previous Version | Text Only | Print | Product List | Glossary On
Versions: 1 2 3 4 5 6 7 8 9 10 11 12 13 14 15 16 17 18 19 20 21 22 23 24 25 26 27 28 29 30 31 32 33 34 35 36 37 38 39 40 41 42 43 44 45 46 47 48 49 50
000
FTUS43 KMKX 231446 AAB
TAFENW
TAF AMD
KENW 231446Z 2315/2412 VRB03KT P6SM SCT015
      TEMPO 2315/2316 BKN015
     FM231600 09005KT P6SM SCT030 SCT250
     FM231900 12007KT P6SM VCTS SCT035CB BKN200
     FM240300 13004KT P6SM VCTS SCT060CB BKN150
     FM240500 18004KT 5SM BR BKN150
     FM240900 20004KT 3SM TSRA BR BKN040 OVC090CB=

USA.gov is the U.S. government's official web portal to all federal, state and local government web resources and services.